sensor_id;sensor_type;location;lat;lon;timestamp;P1;durP1;ratioP1;P2;durP2;ratioP2
20456;SDS011;10387;51.102;6.848;2022-11-21T00:57:33;10.87;;;5.77;;
20456;SDS011;10387;51.102;6.848;2022-11-21T01:10:23;14.43;;;6.33;;
20456;SDS011;10387;51.102;6.848;2022-11-21T01:12:59;19.40;;;6.20;;
20456;SDS011;10387;51.102;6.848;2022-11-21T01:23:38;15.73;;;6.77;;
20456;SDS011;10387;51.102;6.848;2022-11-21T01:26:51;12.37;;;6.70;;
20456;SDS011;10387;51.102;6.848;2022-11-21T01:29:57;14.47;;;6.67;;
20456;SDS011;10387;51.102;6.848;2022-11-21T01:32:33;14.97;;;6.83;;
20456;SDS011;10387;51.102;6.848;2022-11-21T01:36:19;14.43;;;6.60;;
20456;SDS011;10387;51.102;6.848;2022-11-21T01:39:32;13.83;;;6.83;;
20456;SDS011;10387;51.102;6.848;2022-11-21T01:57:04;13.63;;;7.10;;
20456;SDS011;10387;51.102;6.848;2022-11-21T02:07:21;30.40;;;18.77;;
20456;SDS011;10387;51.102;6.848;2022-11-21T02:13:38;28.83;;;18.57;;
20456;SDS011;10387;51.102;6.848;2022-11-21T02:19:07;34.27;;;20.63;;
20456;SDS011;10387;51.102;6.848;2022-11-21T02:22:10;37.53;;;22.70;;
20456;SDS011;10387;51.102;6.848;2022-11-21T02:32:08;37.80;;;23.37;;
20456;SDS011;10387;51.102;6.848;2022-11-21T02:42:36;46.80;;;25.63;;
20456;SDS011;10387;51.102;6.848;2022-11-21T02:46:00;46.23;;;26.47;;
20456;SDS011;10387;51.102;6.848;2022-11-21T02:49:09;48.53;;;26.53;;
20456;SDS011;10387;51.102;6.848;2022-11-21T02:55:56;40.47;;;25.70;;
20456;SDS011;10387;51.102;6.848;2022-11-21T02:58:43;46.80;;;26.63;;
20456;SDS011;10387;51.102;6.848;2022-11-21T03:04:51;47.07;;;26.20;;
20456;SDS011;10387;51.102;6.848;2022-11-21T03:08:03;44.40;;;26.23;;
20456;SDS011;10387;51.102;6.848;2022-11-21T03:10:58;47.57;;;27.23;;
20456;SDS011;10387;51.102;6.848;2022-11-21T03:13:53;48.63;;;27.30;;
20456;SDS011;10387;51.102;6.848;2022-11-21T03:23:02;43.60;;;26.47;;
20456;SDS011;10387;51.102;6.848;2022-11-21T03:25:57;45.87;;;27.20;;
20456;SDS011;10387;51.102;6.848;2022-11-21T03:28:38;50.43;;;27.43;;
20456;SDS011;10387;51.102;6.848;2022-11-21T03:31:32;46.90;;;27.30;;
20456;SDS011;10387;51.102;6.848;2022-11-21T03:44:58;45.57;;;27.53;;
20456;SDS011;10387;51.102;6.848;2022-11-21T03:48:35;48.87;;;28.13;;
20456;SDS011;10387;51.102;6.848;2022-11-21T03:51:25;52.03;;;29.50;;
20456;SDS011;10387;51.102;6.848;2022-11-21T03:58:15;54.80;;;31.20;;
20456;SDS011;10387;51.102;6.848;2022-11-21T04:14:20;54.83;;;30.87;;
20456;SDS011;10387;51.102;6.848;2022-11-21T04:17:10;58.03;;;31.47;;
20456;SDS011;10387;51.102;6.848;2022-11-21T04:20:09;56.93;;;31.70;;
20456;SDS011;10387;51.102;6.848;2022-11-21T04:28:50;59.50;;;31.27;;
20456;SDS011;10387;51.102;6.848;2022-11-21T04:31:27;61.37;;;33.17;;
20456;SDS011;10387;51.102;6.848;2022-11-21T04:34:25;60.83;;;32.50;;
20456;SDS011;10387;51.102;6.848;2022-11-21T04:53:09;72.87;;;36.50;;
20456;SDS011;10387;51.102;6.848;2022-11-21T04:59:09;71.57;;;35.07;;
20456;SDS011;10387;51.102;6.848;2022-11-21T05:08:23;68.30;;;35.33;;
20456;SDS011;10387;51.102;6.848;2022-11-21T05:11:17;66.77;;;34.67;;
20456;SDS011;10387;51.102;6.848;2022-11-21T05:14:34;70.87;;;36.97;;
20456;SDS011;10387;51.102;6.848;2022-11-21T05:17:26;67.63;;;35.30;;
20456;SDS011;10387;51.102;6.848;2022-11-21T05:23:09;63.90;;;34.70;;
20456;SDS011;10387;51.102;6.848;2022-11-21T05:26:01;65.40;;;36.03;;
20456;SDS011;10387;51.102;6.848;2022-11-21T05:29:01;70.10;;;35.43;;
20456;SDS011;10387;51.102;6.848;2022-11-21T05:31:31;68.73;;;35.37;;
20456;SDS011;10387;51.102;6.848;2022-11-21T05:34:04;70.63;;;35.97;;
20456;SDS011;10387;51.102;6.848;2022-11-21T05:36:42;71.60;;;36.10;;
20456;SDS011;10387;51.102;6.848;2022-11-21T05:39:13;67.67;;;35.13;;
20456;SDS011;10387;51.102;6.848;2022-11-21T05:41:42;72.13;;;35.90;;
20456;SDS011;10387;51.102;6.848;2022-11-21T05:44:21;67.90;;;37.37;;
20456;SDS011;10387;51.102;6.848;2022-11-21T05:46:52;70.60;;;36.40;;
20456;SDS011;10387;51.102;6.848;2022-11-21T05:49:21;74.20;;;37.20;;
20456;SDS011;10387;51.102;6.848;2022-11-21T05:51:49;69.27;;;35.83;;
20456;SDS011;10387;51.102;6.848;2022-11-21T05:54:18;69.37;;;34.70;;
20456;SDS011;10387;51.102;6.848;2022-11-21T05:56:44;68.47;;;37.07;;
20456;SDS011;10387;51.102;6.848;2022-11-21T05:59:13;65.03;;;34.87;;
20456;SDS011;10387;51.102;6.848;2022-11-21T06:01:42;58.83;;;32.50;;
20456;SDS011;10387;51.102;6.848;2022-11-21T06:04:30;56.87;;;30.97;;
20456;SDS011;10387;51.102;6.848;2022-11-21T06:06:56;63.20;;;34.63;;
20456;SDS011;10387;51.102;6.848;2022-11-21T06:09:41;63.00;;;33.33;;
20456;SDS011;10387;51.102;6.848;2022-11-21T06:12:12;60.83;;;32.40;;
20456;SDS011;10387;51.102;6.848;2022-11-21T06:14:39;58.23;;;31.63;;
20456;SDS011;10387;51.102;6.848;2022-11-21T06:17:06;62.07;;;32.60;;
20456;SDS011;10387;51.102;6.848;2022-11-21T06:19:32;57.73;;;31.60;;
20456;SDS011;10387;51.102;6.848;2022-11-21T06:22:01;58.53;;;30.60;;
20456;SDS011;10387;51.102;6.848;2022-11-21T06:24:27;62.47;;;31.03;;
20456;SDS011;10387;51.102;6.848;2022-11-21T06:26:53;58.70;;;31.87;;
20456;SDS011;10387;51.102;6.848;2022-11-21T06:29:19;57.80;;;32.30;;
20456;SDS011;10387;51.102;6.848;2022-11-21T06:31:46;58.63;;;32.27;;
20456;SDS011;10387;51.102;6.848;2022-11-21T06:34:12;59.57;;;32.67;;
20456;SDS011;10387;51.102;6.848;2022-11-21T06:36:40;61.37;;;32.70;;
20456;SDS011;10387;51.102;6.848;2022-11-21T06:39:15;59.30;;;33.50;;
20456;SDS011;10387;51.102;6.848;2022-11-21T06:41:42;53.77;;;31.17;;
20456;SDS011;10387;51.102;6.848;2022-11-21T06:44:15;52.83;;;30.13;;
20456;SDS011;10387;51.102;6.848;2022-11-21T06:46:41;50.50;;;29.53;;
20456;SDS011;10387;51.102;6.848;2022-11-21T06:49:08;56.60;;;31.10;;
20456;SDS011;10387;51.102;6.848;2022-11-21T06:51:34;50.87;;;29.57;;
20456;SDS011;10387;51.102;6.848;2022-11-21T06:54:00;56.63;;;31.80;;
20456;SDS011;10387;51.102;6.848;2022-11-21T06:56:29;60.03;;;31.73;;
20456;SDS011;10387;51.102;6.848;2022-11-21T06:58:55;56.23;;;32.93;;
20456;SDS011;10387;51.102;6.848;2022-11-21T07:01:22;57.13;;;30.77;;
20456;SDS011;10387;51.102;6.848;2022-11-21T07:03:48;55.63;;;30.37;;
20456;SDS011;10387;51.102;6.848;2022-11-21T07:06:18;53.03;;;30.73;;
20456;SDS011;10387;51.102;6.848;2022-11-21T07:08:45;47.30;;;27.30;;
20456;SDS011;10387;51.102;6.848;2022-11-21T07:11:12;40.37;;;24.40;;
20456;SDS011;10387;51.102;6.848;2022-11-21T07:13:38;42.03;;;23.67;;
20456;SDS011;10387;51.102;6.848;2022-11-21T07:16:06;41.23;;;23.40;;
20456;SDS011;10387;51.102;6.848;2022-11-21T07:18:32;40.60;;;22.37;;
20456;SDS011;10387;51.102;6.848;2022-11-21T07:21:03;37.80;;;22.30;;
20456;SDS011;10387;51.102;6.848;2022-11-21T07:23:29;37.33;;;22.40;;
20456;SDS011;10387;51.102;6.848;2022-11-21T07:25:59;39.67;;;22.13;;
20456;SDS011;10387;51.102;6.848;2022-11-21T07:28:29;39.27;;;22.77;;
20456;SDS011;10387;51.102;6.848;2022-11-21T07:30:56;36.90;;;22.93;;
20456;SDS011;10387;51.102;6.848;2022-11-21T07:33:22;29.67;;;19.27;;
20456;SDS011;10387;51.102;6.848;2022-11-21T07:35:49;29.23;;;19.20;;
20456;SDS011;10387;51.102;6.848;2022-11-21T07:38:15;30.93;;;21.13;;
20456;SDS011;10387;51.102;6.848;2022-11-21T07:40:42;34.73;;;21.10;;
20456;SDS011;10387;51.102;6.848;2022-11-21T07:43:08;32.43;;;20.50;;
20456;SDS011;10387;51.102;6.848;2022-11-21T07:45:35;32.60;;;20.47;;
20456;SDS011;10387;51.102;6.848;2022-11-21T07:48:04;32.77;;;19.77;;
20456;SDS011;10387;51.102;6.848;2022-11-21T07:50:31;32.17;;;21.80;;
20456;SDS011;10387;51.102;6.848;2022-11-21T07:53:00;34.30;;;20.57;;
20456;SDS011;10387;51.102;6.848;2022-11-21T07:55:27;32.10;;;20.87;;
20456;SDS011;10387;51.102;6.848;2022-11-21T07:57:59;29.93;;;20.00;;
20456;SDS011;10387;51.102;6.848;2022-11-21T08:00:28;24.93;;;16.10;;
20456;SDS011;10387;51.102;6.848;2022-11-21T08:02:55;24.63;;;17.33;;
20456;SDS011;10387;51.102;6.848;2022-11-21T08:05:21;20.13;;;13.73;;
20456;SDS011;10387;51.102;6.848;2022-11-21T08:07:50;14.00;;;11.60;;
20456;SDS011;10387;51.102;6.848;2022-11-21T08:10:17;11.97;;;9.83;;
20456;SDS011;10387;51.102;6.848;2022-11-21T08:12:43;16.03;;;10.27;;
20456;SDS011;10387;51.102;6.848;2022-11-21T08:15:10;13.27;;;10.13;;
20456;SDS011;10387;51.102;6.848;2022-11-21T08:17:39;14.97;;;9.73;;
20456;SDS011;10387;51.102;6.848;2022-11-21T08:20:05;13.47;;;9.77;;
20456;SDS011;10387;51.102;6.848;2022-11-21T08:22:36;17.37;;;11.27;;
20456;SDS011;10387;51.102;6.848;2022-11-21T08:25:03;14.20;;;11.30;;
20456;SDS011;10387;51.102;6.848;2022-11-21T08:27:31;14.93;;;10.60;;
20456;SDS011;10387;51.102;6.848;2022-11-21T08:29:58;14.60;;;10.33;;
20456;SDS011;10387;51.102;6.848;2022-11-21T08:32:24;15.27;;;10.80;;
20456;SDS011;10387;51.102;6.848;2022-11-21T08:34:50;14.47;;;10.30;;
20456;SDS011;10387;51.102;6.848;2022-11-21T08:37:16;12.40;;;10.20;;
20456;SDS011;10387;51.102;6.848;2022-11-21T08:39:45;12.20;;;9.30;;
20456;SDS011;10387;51.102;6.848;2022-11-21T08:42:11;17.73;;;10.83;;
20456;SDS011;10387;51.102;6.848;2022-11-21T08:44:37;11.23;;;9.13;;
20456;SDS011;10387;51.102;6.848;2022-11-21T08:47:04;12.47;;;9.80;;
20456;SDS011;10387;51.102;6.848;2022-11-21T08:49:30;12.70;;;9.80;;
20456;SDS011;10387;51.102;6.848;2022-11-21T08:51:56;12.87;;;10.13;;
20456;SDS011;10387;51.102;6.848;2022-11-21T08:54:23;15.40;;;11.27;;
20456;SDS011;10387;51.102;6.848;2022-11-21T08:56:49;13.07;;;10.67;;
20456;SDS011;10387;51.102;6.848;2022-11-21T08:59:15;15.37;;;10.90;;
20456;SDS011;10387;51.102;6.848;2022-11-21T09:01:42;16.03;;;11.67;;
20456;SDS011;10387;51.102;6.848;2022-11-21T09:04:08;17.07;;;12.20;;
20456;SDS011;10387;51.102;6.848;2022-11-21T09:06:35;17.23;;;12.43;;
20456;SDS011;10387;51.102;6.848;2022-11-21T09:09:03;15.30;;;12.77;;
20456;SDS011;10387;51.102;6.848;2022-11-21T09:11:29;17.70;;;12.70;;
20456;SDS011;10387;51.102;6.848;2022-11-21T09:13:55;20.47;;;12.87;;
20456;SDS011;10387;51.102;6.848;2022-11-21T09:16:42;19.53;;;13.10;;
20456;SDS011;10387;51.102;6.848;2022-11-21T09:19:28;17.73;;;12.40;;
20456;SDS011;10387;51.102;6.848;2022-11-21T09:21:54;18.73;;;13.17;;
20456;SDS011;10387;51.102;6.848;2022-11-21T09:24:20;15.37;;;12.23;;
20456;SDS011;10387;51.102;6.848;2022-11-21T09:26:48;17.80;;;12.50;;
20456;SDS011;10387;51.102;6.848;2022-11-21T09:29:15;16.97;;;13.17;;
20456;SDS011;10387;51.102;6.848;2022-11-21T09:31:41;14.40;;;11.77;;
20456;SDS011;10387;51.102;6.848;2022-11-21T09:34:07;14.73;;;11.60;;
20456;SDS011;10387;51.102;6.848;2022-11-21T09:36:33;17.00;;;11.93;;
20456;SDS011;10387;51.102;6.848;2022-11-21T09:39:00;17.00;;;13.27;;
20456;SDS011;10387;51.102;6.848;2022-11-21T09:46:43;18.90;;;12.93;;
20456;SDS011;10387;51.102;6.848;2022-11-21T09:49:10;15.53;;;12.33;;
20456;SDS011;10387;51.102;6.848;2022-11-21T09:51:37;18.87;;;13.27;;
20456;SDS011;10387;51.102;6.848;2022-11-21T09:56:36;17.20;;;11.73;;
20456;SDS011;10387;51.102;6.848;2022-11-21T10:01:36;14.20;;;11.37;;
20456;SDS011;10387;51.102;6.848;2022-11-21T10:04:06;14.77;;;11.90;;
20456;SDS011;10387;51.102;6.848;2022-11-21T10:06:39;13.73;;;10.97;;
20456;SDS011;10387;51.102;6.848;2022-11-21T10:14:47;14.30;;;10.17;;
20456;SDS011;10387;51.102;6.848;2022-11-21T10:17:23;14.33;;;9.20;;
20456;SDS011;10387;51.102;6.848;2022-11-21T10:20:07;15.20;;;10.23;;
20456;SDS011;10387;51.102;6.848;2022-11-21T10:25:29;15.43;;;9.50;;
20456;SDS011;10387;51.102;6.848;2022-11-21T10:28:01;14.83;;;9.20;;
20456;SDS011;10387;51.102;6.848;2022-11-21T10:30:29;15.03;;;10.07;;
20456;SDS011;10387;51.102;6.848;2022-11-21T10:32:57;12.50;;;9.73;;
20456;SDS011;10387;51.102;6.848;2022-11-21T10:35:29;9.27;;;8.20;;
20456;SDS011;10387;51.102;6.848;2022-11-21T10:38:17;10.50;;;8.50;;
20456;SDS011;10387;51.102;6.848;2022-11-21T10:47:10;8.97;;;6.30;;
20456;SDS011;10387;51.102;6.848;2022-11-21T10:49:35;10.67;;;6.30;;
20456;SDS011;10387;51.102;6.848;2022-11-21T10:52:10;8.13;;;5.83;;
20456;SDS011;10387;51.102;6.848;2022-11-21T10:57:23;7.97;;;5.80;;
20456;SDS011;10387;51.102;6.848;2022-11-21T11:00:04;6.40;;;5.40;;
20456;SDS011;10387;51.102;6.848;2022-11-21T11:02:39;8.90;;;5.50;;
20456;SDS011;10387;51.102;6.848;2022-11-21T11:05:21;10.83;;;5.50;;
20456;SDS011;10387;51.102;6.848;2022-11-21T11:08:01;8.47;;;5.27;;
20456;SDS011;10387;51.102;6.848;2022-11-21T11:10:28;7.90;;;5.07;;
20456;SDS011;10387;51.102;6.848;2022-11-21T11:12:57;7.67;;;5.07;;
20456;SDS011;10387;51.102;6.848;2022-11-21T11:15:52;11.23;;;5.23;;
20456;SDS011;10387;51.102;6.848;2022-11-21T11:18:19;9.00;;;5.23;;
20456;SDS011;10387;51.102;6.848;2022-11-21T11:21:18;6.90;;;5.10;;
20456;SDS011;10387;51.102;6.848;2022-11-21T11:23:51;8.23;;;5.20;;
20456;SDS011;10387;51.102;6.848;2022-11-21T11:26:23;5.93;;;4.80;;
20456;SDS011;10387;51.102;6.848;2022-11-21T11:28:49;5.73;;;4.40;;
20456;SDS011;10387;51.102;6.848;2022-11-21T11:31:18;9.23;;;4.87;;
20456;SDS011;10387;51.102;6.848;2022-11-21T11:36:15;8.23;;;5.10;;
20456;SDS011;10387;51.102;6.848;2022-11-21T11:38:46;6.23;;;4.47;;
20456;SDS011;10387;51.102;6.848;2022-11-21T11:44:25;6.20;;;4.80;;
20456;SDS011;10387;51.102;6.848;2022-11-21T11:50:51;6.30;;;4.73;;
20456;SDS011;10387;51.102;6.848;2022-11-21T11:53:38;7.07;;;4.80;;
20456;SDS011;10387;51.102;6.848;2022-11-21T11:56:24;8.80;;;5.40;;
20456;SDS011;10387;51.102;6.848;2022-11-21T12:11:00;3.87;;;1.90;;
20456;SDS011;10387;51.102;6.848;2022-11-21T12:13:34;4.00;;;1.63;;
20456;SDS011;10387;51.102;6.848;2022-11-21T12:16:05;1.77;;;1.40;;
20456;SDS011;10387;51.102;6.848;2022-11-21T12:21:47;2.73;;;1.60;;
20456;SDS011;10387;51.102;6.848;2022-11-21T12:24:16;3.07;;;2.27;;
20456;SDS011;10387;51.102;6.848;2022-11-21T12:26:55;4.07;;;3.43;;
20456;SDS011;10387;51.102;6.848;2022-11-21T12:32:01;2.97;;;2.10;;
20456;SDS011;10387;51.102;6.848;2022-11-21T12:37:32;3.47;;;2.07;;
20456;SDS011;10387;51.102;6.848;2022-11-21T12:40:18;2.47;;;1.60;;
20456;SDS011;10387;51.102;6.848;2022-11-21T12:45:49;4.00;;;2.07;;
20456;SDS011;10387;51.102;6.848;2022-11-21T12:59:47;5.67;;;2.23;;
20456;SDS011;10387;51.102;6.848;2022-11-21T13:05:08;3.97;;;2.70;;
20456;SDS011;10387;51.102;6.848;2022-11-21T13:07:40;5.23;;;2.20;;
20456;SDS011;10387;51.102;6.848;2022-11-21T13:10:15;5.57;;;4.40;;
20456;SDS011;10387;51.102;6.848;2022-11-21T13:12:53;6.07;;;4.03;;
20456;SDS011;10387;51.102;6.848;2022-11-21T13:15:40;6.47;;;2.60;;
20456;SDS011;10387;51.102;6.848;2022-11-21T13:18:18;4.60;;;2.10;;
20456;SDS011;10387;51.102;6.848;2022-11-21T13:20:46;5.67;;;2.03;;
20456;SDS011;10387;51.102;6.848;2022-11-21T13:23:34;3.03;;;1.97;;
20456;SDS011;10387;51.102;6.848;2022-11-21T13:29:07;4.37;;;1.97;;
20456;SDS011;10387;51.102;6.848;2022-11-21T13:31:44;3.80;;;2.23;;
20456;SDS011;10387;51.102;6.848;2022-11-21T13:37:05;5.73;;;5.20;;
20456;SDS011;10387;51.102;6.848;2022-11-21T13:39:34;3.07;;;2.40;;
20456;SDS011;10387;51.102;6.848;2022-11-21T13:44:57;2.37;;;1.83;;
20456;SDS011;10387;51.102;6.848;2022-11-21T13:47:38;2.87;;;1.90;;
20456;SDS011;10387;51.102;6.848;2022-11-21T13:50:12;5.63;;;2.40;;
20456;SDS011;10387;51.102;6.848;2022-11-21T13:58:18;4.60;;;2.63;;
20456;SDS011;10387;51.102;6.848;2022-11-21T14:06:23;2.97;;;2.40;;
20456;SDS011;10387;51.102;6.848;2022-11-21T14:09:05;3.27;;;2.50;;
20456;SDS011;10387;51.102;6.848;2022-11-21T14:11:46;3.97;;;2.33;;
20456;SDS011;10387;51.102;6.848;2022-11-21T14:14:24;4.13;;;1.67;;
20456;SDS011;10387;51.102;6.848;2022-11-21T14:16:52;2.97;;;2.10;;
20456;SDS011;10387;51.102;6.848;2022-11-21T14:19:27;2.17;;;1.60;;
20456;SDS011;10387;51.102;6.848;2022-11-21T14:24:51;6.53;;;2.03;;
20456;SDS011;10387;51.102;6.848;2022-11-21T14:27:31;2.50;;;1.97;;
20456;SDS011;10387;51.102;6.848;2022-11-21T14:30:22;4.47;;;2.40;;
20456;SDS011;10387;51.102;6.848;2022-11-21T14:32:49;3.07;;;2.00;;
20456;SDS011;10387;51.102;6.848;2022-11-21T14:35:19;4.13;;;2.87;;
20456;SDS011;10387;51.102;6.848;2022-11-21T14:37:50;5.17;;;2.80;;
20456;SDS011;10387;51.102;6.848;2022-11-21T14:40:21;3.70;;;1.97;;
20456;SDS011;10387;51.102;6.848;2022-11-21T14:42:53;4.03;;;1.73;;
20456;SDS011;10387;51.102;6.848;2022-11-21T14:45:22;3.20;;;1.87;;
20456;SDS011;10387;51.102;6.848;2022-11-21T14:47:54;3.53;;;1.70;;
20456;SDS011;10387;51.102;6.848;2022-11-21T14:50:32;3.33;;;1.80;;
20456;SDS011;10387;51.102;6.848;2022-11-21T14:52:59;3.97;;;1.93;;
20456;SDS011;10387;51.102;6.848;2022-11-21T14:55:29;2.03;;;1.83;;
20456;SDS011;10387;51.102;6.848;2022-11-21T14:58:04;4.30;;;2.33;;
20456;SDS011;10387;51.102;6.848;2022-11-21T15:00:33;3.33;;;1.93;;
20456;SDS011;10387;51.102;6.848;2022-11-21T15:03:14;3.83;;;2.60;;
20456;SDS011;10387;51.102;6.848;2022-11-21T15:05:42;5.03;;;2.40;;
20456;SDS011;10387;51.102;6.848;2022-11-21T15:08:21;4.00;;;2.00;;
20456;SDS011;10387;51.102;6.848;2022-11-21T15:10:49;5.53;;;2.10;;
20456;SDS011;10387;51.102;6.848;2022-11-21T15:13:16;2.80;;;1.57;;
20456;SDS011;10387;51.102;6.848;2022-11-21T15:15:47;3.73;;;2.13;;
20456;SDS011;10387;51.102;6.848;2022-11-21T15:18:24;4.30;;;2.37;;
20456;SDS011;10387;51.102;6.848;2022-11-21T15:20:53;2.63;;;1.80;;
20456;SDS011;10387;51.102;6.848;2022-11-21T15:23:30;7.13;;;2.50;;
20456;SDS011;10387;51.102;6.848;2022-11-21T15:25:57;3.87;;;2.63;;
20456;SDS011;10387;51.102;6.848;2022-11-21T15:28:24;3.47;;;2.40;;
20456;SDS011;10387;51.102;6.848;2022-11-21T15:33:54;7.70;;;4.50;;
20456;SDS011;10387;51.102;6.848;2022-11-21T15:36:20;5.23;;;2.40;;
20456;SDS011;10387;51.102;6.848;2022-11-21T15:41:26;2.33;;;2.03;;
20456;SDS011;10387;51.102;6.848;2022-11-21T15:44:17;5.30;;;2.33;;
20456;SDS011;10387;51.102;6.848;2022-11-21T15:46:39;2.93;;;1.93;;
20456;SDS011;10387;51.102;6.848;2022-11-21T15:49:13;3.60;;;1.80;;
20456;SDS011;10387;51.102;6.848;2022-11-21T15:54:06;4.03;;;2.43;;
20456;SDS011;10387;51.102;6.848;2022-11-21T15:56:35;4.13;;;2.47;;
20456;SDS011;10387;51.102;6.848;2022-11-21T15:59:02;3.97;;;2.27;;
20456;SDS011;10387;51.102;6.848;2022-11-21T16:01:28;3.20;;;2.30;;
20456;SDS011;10387;51.102;6.848;2022-11-21T16:03:58;4.97;;;2.33;;
20456;SDS011;10387;51.102;6.848;2022-11-21T16:06:27;6.33;;;2.97;;
20456;SDS011;10387;51.102;6.848;2022-11-21T16:08:57;3.03;;;2.23;;
20456;SDS011;10387;51.102;6.848;2022-11-21T16:11:27;2.83;;;2.23;;
20456;SDS011;10387;51.102;6.848;2022-11-21T16:13:56;6.50;;;2.80;;
20456;SDS011;10387;51.102;6.848;2022-11-21T16:16:41;4.73;;;2.77;;
20456;SDS011;10387;51.102;6.848;2022-11-21T16:19:14;4.37;;;2.80;;
20456;SDS011;10387;51.102;6.848;2022-11-21T16:21:44;5.77;;;3.00;;
20456;SDS011;10387;51.102;6.848;2022-11-21T16:24:12;4.67;;;2.73;;
20456;SDS011;10387;51.102;6.848;2022-11-21T16:26:39;5.60;;;3.10;;
20456;SDS011;10387;51.102;6.848;2022-11-21T16:29:05;6.63;;;3.10;;
20456;SDS011;10387;51.102;6.848;2022-11-21T16:31:32;5.00;;;3.37;;
20456;SDS011;10387;51.102;6.848;2022-11-21T16:33:58;4.83;;;3.03;;
20456;SDS011;10387;51.102;6.848;2022-11-21T16:36:25;3.07;;;2.23;;
20456;SDS011;10387;51.102;6.848;2022-11-21T16:38:52;5.70;;;2.50;;
20456;SDS011;10387;51.102;6.848;2022-11-21T16:41:19;3.27;;;2.50;;
20456;SDS011;10387;51.102;6.848;2022-11-21T16:43:47;7.23;;;2.93;;
20456;SDS011;10387;51.102;6.848;2022-11-21T16:46:13;6.10;;;2.70;;
20456;SDS011;10387;51.102;6.848;2022-11-21T16:48:40;4.13;;;2.90;;
20456;SDS011;10387;51.102;6.848;2022-11-21T16:51:11;6.27;;;3.20;;
20456;SDS011;10387;51.102;6.848;2022-11-21T16:53:38;6.23;;;3.77;;
20456;SDS011;10387;51.102;6.848;2022-11-21T16:56:04;5.10;;;2.93;;
20456;SDS011;10387;51.102;6.848;2022-11-21T16:58:30;4.97;;;2.90;;
20456;SDS011;10387;51.102;6.848;2022-11-21T17:00:56;4.30;;;3.13;;
20456;SDS011;10387;51.102;6.848;2022-11-21T17:03:23;6.63;;;3.60;;
20456;SDS011;10387;51.102;6.848;2022-11-21T17:05:58;5.33;;;3.37;;
20456;SDS011;10387;51.102;6.848;2022-11-21T17:08:26;3.70;;;3.10;;
20456;SDS011;10387;51.102;6.848;2022-11-21T17:10:53;6.90;;;2.97;;
20456;SDS011;10387;51.102;6.848;2022-11-21T17:13:19;7.93;;;3.50;;
20456;SDS011;10387;51.102;6.848;2022-11-21T17:15:48;5.37;;;3.10;;
20456;SDS011;10387;51.102;6.848;2022-11-21T17:18:14;6.20;;;3.60;;
20456;SDS011;10387;51.102;6.848;2022-11-21T17:20:43;7.30;;;3.93;;
20456;SDS011;10387;51.102;6.848;2022-11-21T17:23:09;8.17;;;3.20;;
20456;SDS011;10387;51.102;6.848;2022-11-21T17:25:35;8.07;;;3.50;;
20456;SDS011;10387;51.102;6.848;2022-11-21T17:28:01;4.00;;;2.90;;
20456;SDS011;10387;51.102;6.848;2022-11-21T17:30:27;5.97;;;3.37;;
20456;SDS011;10387;51.102;6.848;2022-11-21T17:32:54;9.53;;;3.60;;
20456;SDS011;10387;51.102;6.848;2022-11-21T17:35:22;6.23;;;3.37;;
20456;SDS011;10387;51.102;6.848;2022-11-21T17:37:49;5.60;;;3.40;;
20456;SDS011;10387;51.102;6.848;2022-11-21T17:40:15;4.70;;;3.27;;
20456;SDS011;10387;51.102;6.848;2022-11-21T17:42:41;5.67;;;3.20;;
20456;SDS011;10387;51.102;6.848;2022-11-21T17:45:07;4.97;;;3.27;;
20456;SDS011;10387;51.102;6.848;2022-11-21T17:47:34;5.80;;;3.27;;
20456;SDS011;10387;51.102;6.848;2022-11-21T17:50:00;5.67;;;3.47;;
20456;SDS011;10387;51.102;6.848;2022-11-21T17:52:26;3.70;;;3.20;;
20456;SDS011;10387;51.102;6.848;2022-11-21T17:54:52;6.23;;;3.80;;
20456;SDS011;10387;51.102;6.848;2022-11-21T17:57:18;6.00;;;3.97;;
20456;SDS011;10387;51.102;6.848;2022-11-21T17:59:47;7.97;;;4.10;;
20456;SDS011;10387;51.102;6.848;2022-11-21T18:02:13;5.47;;;3.80;;
20456;SDS011;10387;51.102;6.848;2022-11-21T18:04:42;5.20;;;3.50;;
20456;SDS011;10387;51.102;6.848;2022-11-21T18:07:10;5.80;;;3.30;;
20456;SDS011;10387;51.102;6.848;2022-11-21T18:09:37;5.97;;;4.13;;
20456;SDS011;10387;51.102;6.848;2022-11-21T18:12:04;7.63;;;4.40;;
20456;SDS011;10387;51.102;6.848;2022-11-21T18:14:30;8.83;;;5.63;;
20456;SDS011;10387;51.102;6.848;2022-11-21T18:16:56;8.07;;;4.70;;
20456;SDS011;10387;51.102;6.848;2022-11-21T18:19:22;5.83;;;4.30;;
20456;SDS011;10387;51.102;6.848;2022-11-21T18:21:48;4.73;;;3.67;;
20456;SDS011;10387;51.102;6.848;2022-11-21T18:24:18;4.97;;;3.93;;
20456;SDS011;10387;51.102;6.848;2022-11-21T18:26:46;5.43;;;3.63;;
20456;SDS011;10387;51.102;6.848;2022-11-21T18:29:12;7.20;;;3.70;;
20456;SDS011;10387;51.102;6.848;2022-11-21T18:31:38;4.73;;;3.43;;
20456;SDS011;10387;51.102;6.848;2022-11-21T18:34:07;6.43;;;3.63;;
20456;SDS011;10387;51.102;6.848;2022-11-21T18:36:34;5.13;;;3.80;;
20456;SDS011;10387;51.102;6.848;2022-11-21T18:39:00;3.80;;;3.23;;
20456;SDS011;10387;51.102;6.848;2022-11-21T18:41:30;7.93;;;3.93;;
20456;SDS011;10387;51.102;6.848;2022-11-21T18:43:58;6.37;;;3.50;;
20456;SDS011;10387;51.102;6.848;2022-11-21T18:46:26;6.67;;;3.60;;
20456;SDS011;10387;51.102;6.848;2022-11-21T18:48:52;6.37;;;3.90;;
20456;SDS011;10387;51.102;6.848;2022-11-21T18:51:20;5.90;;;3.47;;
20456;SDS011;10387;51.102;6.848;2022-11-21T18:53:50;5.53;;;3.70;;
20456;SDS011;10387;51.102;6.848;2022-11-21T18:56:16;4.20;;;3.80;;
20456;SDS011;10387;51.102;6.848;2022-11-21T18:58:43;5.43;;;3.60;;
20456;SDS011;10387;51.102;6.848;2022-11-21T19:01:10;6.03;;;3.37;;
20456;SDS011;10387;51.102;6.848;2022-11-21T19:03:37;6.40;;;4.00;;
20456;SDS011;10387;51.102;6.848;2022-11-21T19:06:07;5.90;;;3.60;;
20456;SDS011;10387;51.102;6.848;2022-11-21T19:08:33;4.47;;;3.50;;
20456;SDS011;10387;51.102;6.848;2022-11-21T19:11:06;6.47;;;4.10;;
20456;SDS011;10387;51.102;6.848;2022-11-21T19:13:33;6.33;;;4.40;;
20456;SDS011;10387;51.102;6.848;2022-11-21T19:15:59;7.50;;;4.53;;
20456;SDS011;10387;51.102;6.848;2022-11-21T19:18:29;8.87;;;4.60;;
20456;SDS011;10387;51.102;6.848;2022-11-21T19:20:55;5.47;;;4.03;;
20456;SDS011;10387;51.102;6.848;2022-11-21T19:23:21;6.80;;;3.83;;
20456;SDS011;10387;51.102;6.848;2022-11-21T19:26:00;7.03;;;3.70;;
20456;SDS011;10387;51.102;6.848;2022-11-21T19:28:36;7.17;;;3.97;;
20456;SDS011;10387;51.102;6.848;2022-11-21T19:31:03;9.57;;;4.27;;
20456;SDS011;10387;51.102;6.848;2022-11-21T19:33:31;7.07;;;4.00;;
20456;SDS011;10387;51.102;6.848;2022-11-21T19:36:02;7.73;;;4.00;;
20456;SDS011;10387;51.102;6.848;2022-11-21T19:38:28;8.60;;;4.10;;
20456;SDS011;10387;51.102;6.848;2022-11-21T19:41:02;4.13;;;3.23;;
20456;SDS011;10387;51.102;6.848;2022-11-21T19:43:43;7.43;;;4.10;;
20456;SDS011;10387;51.102;6.848;2022-11-21T19:46:14;5.83;;;3.90;;
20456;SDS011;10387;51.102;6.848;2022-11-21T19:48:47;7.07;;;4.23;;
20456;SDS011;10387;51.102;6.848;2022-11-21T19:51:15;7.13;;;4.10;;
20456;SDS011;10387;51.102;6.848;2022-11-21T19:53:42;6.47;;;4.30;;
20456;SDS011;10387;51.102;6.848;2022-11-21T19:56:20;5.13;;;3.70;;
20456;SDS011;10387;51.102;6.848;2022-11-21T19:58:50;5.83;;;4.00;;
20456;SDS011;10387;51.102;6.848;2022-11-21T20:01:17;6.90;;;4.27;;
20456;SDS011;10387;51.102;6.848;2022-11-21T20:03:44;4.77;;;3.67;;
20456;SDS011;10387;51.102;6.848;2022-11-21T20:06:14;7.40;;;4.23;;
20456;SDS011;10387;51.102;6.848;2022-11-21T20:08:41;7.50;;;4.10;;
20456;SDS011;10387;51.102;6.848;2022-11-21T20:11:11;5.80;;;3.70;;